Time,TemperatureF,DewpointF,PressureIn,WindDirection,WindDirectionDegrees,WindSpeedMPH,WindSpeedGustMPH,Humidity,HourlyPrecipIn,Conditions,Clouds,dailyrainin,SoftwareType,DateUTC
2013-03-04 06:22:00,68.0,55.0,30.16,East,89,17.0,31.0,63,0.00,,,0.00,,2013-03-04 16:22:00,
2013-03-04 06:32:00,68.0,56.0,30.16,East,96,11.0,24.0,65,0.00,,,0.00,,2013-03-04 16:32:00,
2013-03-04 06:42:00,68.0,56.0,30.16,East,96,11.0,24.0,65,0.00,,,0.00,,2013-03-04 16:42:00,
2013-03-04 06:52:00,68.0,56.0,30.16,ENE,73,14.0,25.0,66,0.00,,,0.00,,2013-03-04 16:52:00,
2013-03-04 07:01:00,68.0,58.0,30.16,East,94,8.0,24.0,71,0.00,,,0.00,,2013-03-04 17:01:00,
2013-03-04 07:11:00,68.0,58.0,30.16,East,94,8.0,24.0,71,0.00,,,0.00,,2013-03-04 17:11:00,
2013-03-04 07:21:00,67.0,60.0,30.17,ENE,63,13.0,24.0,77,0.00,,,0.00,,2013-03-04 17:21:00,
2013-03-04 07:31:00,67.0,59.0,30.18,ENE,75,9.0,23.0,75,0.00,,,0.00,,2013-03-04 17:31:00,
2013-03-04 07:42:00,67.0,59.0,30.18,ENE,75,9.0,23.0,75,0.00,,,0.00,,2013-03-04 17:42:00,
2013-03-04 07:52:00,67.0,59.0,30.18,East,80,12.0,19.0,75,0.00,,,0.00,,2013-03-04 17:52:00,
2013-03-04 08:01:00,68.0,59.0,30.18,NE,36,9.0,27.0,74,0.00,,,0.00,,2013-03-04 18:01:00,
2013-03-04 08:11:00,68.0,59.0,30.18,NE,36,9.0,27.0,74,0.00,,,0.00,,2013-03-04 18:11:00,
2013-03-04 08:21:00,68.0,58.0,30.19,NE,37,8.0,19.0,70,0.00,,,0.00,,2013-03-04 18:21:00,
2013-03-04 08:31:00,68.0,58.0,30.19,ENE,72,14.0,24.0,71,0.00,,,0.00,,2013-03-04 18:31:00,
2013-03-04 08:41:00,68.0,58.0,30.19,ENE,72,14.0,24.0,71,0.00,,,0.00,,2013-03-04 18:41:00,
2013-03-04 08:52:00,68.0,57.0,30.19,ENE,75,10.0,22.0,67,0.00,,,0.00,,2013-03-04 18:52:00,
2013-03-04 09:01:00,69.0,56.0,30.19,East,92,10.0,18.0,63,0.00,,,0.00,,2013-03-04 19:01:00,
2013-03-04 09:11:00,69.0,56.0,30.19,East,92,10.0,18.0,63,0.00,,,0.00,,2013-03-04 19:11:00,
2013-03-04 09:21:00,67.0,60.0,30.19,ENE,76,8.0,22.0,77,0.00,,,0.00,,2013-03-04 19:21:00,
2013-03-04 09:31:00,67.0,59.0,30.19,ESE,115,10.0,18.0,76,0.00,,,0.00,,2013-03-04 19:31:00,
2013-03-04 09:41:00,67.0,59.0,30.19,ESE,115,10.0,18.0,76,0.00,,,0.00,,2013-03-04 19:41:00,
2013-03-04 09:52:00,68.0,59.0,30.20,East,80,10.0,19.0,74,0.00,,,0.00,,2013-03-04 19:52:00,
2013-03-04 10:01:00,68.0,59.0,30.20,ENE,63,7.0,18.0,74,0.00,,,0.00,,2013-03-04 20:01:00,
2013-03-04 10:11:00,68.0,60.0,30.20,East,82,15.0,23.0,75,0.00,,,0.00,,2013-03-04 20:11:00,
2013-03-04 10:21:00,68.0,60.0,30.20,East,82,15.0,23.0,75,0.00,,,0.00,,2013-03-04 20:21:00,
2013-03-04 10:31:00,70.0,60.0,30.20,East,91,9.0,19.0,70,0.00,,,0.00,,2013-03-04 20:31:00,
2013-03-04 10:41:00,70.0,60.0,30.20,East,91,9.0,19.0,70,0.00,,,0.00,,2013-03-04 20:41:00,
2013-03-04 10:52:00,70.0,59.0,30.19,East,100,11.0,27.0,68,0.00,,,0.00,,2013-03-04 20:52:00,
2013-03-04 11:01:00,70.0,59.0,30.19,East,79,12.0,21.0,67,0.00,,,0.00,,2013-03-04 21:01:00,
2013-03-04 11:11:00,70.0,59.0,30.19,East,79,12.0,21.0,67,0.00,,,0.00,,2013-03-04 21:11:00,
2013-03-04 11:21:00,71.0,59.0,30.19,ESE,103,7.0,22.0,65,0.00,,,0.00,,2013-03-04 21:21:00,
2013-03-04 11:31:00,72.0,56.0,30.19,ENE,77,9.0,16.0,58,0.00,,,0.00,,2013-03-04 21:31:00,
2013-03-04 11:41:00,72.0,56.0,30.19,ENE,77,9.0,16.0,58,0.00,,,0.00,,2013-03-04 21:41:00,
2013-03-04 11:52:00,72.0,58.0,30.18,ENE,75,15.0,24.0,61,0.00,,,0.00,,2013-03-04 21:52:00,
2013-03-04 12:01:00,71.0,57.0,30.18,East,85,17.0,31.0,62,0.00,,,0.00,,2013-03-04 22:01:00,
2013-03-04 12:11:00,71.0,57.0,30.18,East,85,17.0,31.0,62,0.00,,,0.00,,2013-03-04 22:11:00,
2013-03-04 12:21:00,71.0,57.0,30.17,ENE,58,14.0,26.0,61,0.00,,,0.00,,2013-03-04 22:21:00,
2013-03-04 12:31:00,71.0,58.0,30.16,NE,55,18.0,29.0,64,0.00,,,0.00,,2013-03-04 22:31:00,
2013-03-04 12:42:00,71.0,58.0,30.16,NE,55,18.0,29.0,64,0.00,,,0.00,,2013-03-04 22:42:00,
2013-03-04 12:52:00,72.0,58.0,30.16,NE,42,14.0,26.0,61,0.00,,,0.00,,2013-03-04 22:52:00,
2013-03-04 13:01:00,71.0,58.0,30.15,ENE,65,12.0,26.0,64,0.00,,,0.00,,2013-03-04 23:01:00,
2013-03-04 13:11:00,71.0,58.0,30.15,ENE,65,12.0,26.0,64,0.00,,,0.00,,2013-03-04 23:11:00,
2013-03-04 13:21:00,71.0,59.0,30.15,NE,56,16.0,26.0,65,0.00,,,0.00,,2013-03-04 23:21:00,
2013-03-04 13:31:00,72.0,58.0,30.15,ENE,61,14.0,26.0,61,0.00,,,0.00,,2013-03-04 23:31:00,
2013-03-04 13:41:00,72.0,58.0,30.15,ENE,61,14.0,26.0,61,0.00,,,0.00,,2013-03-04 23:41:00,
2013-03-04 13:52:00,71.0,57.0,30.15,East,83,14.0,27.0,61,0.00,,,0.00,,2013-03-04 23:52:00,
2013-03-04 14:01:00,71.0,56.0,30.14,NE,49,14.0,31.0,59,0.00,,,0.00,,2013-03-05 00:01:00,
2013-03-04 14:11:00,71.0,56.0,30.14,NE,49,14.0,31.0,59,0.00,,,0.00,,2013-03-05 00:11:00,
2013-03-04 14:21:00,72.0,58.0,30.13,ENE,69,12.0,25.0,61,0.00,,,0.00,,2013-03-05 00:21:00,
2013-03-04 14:32:00,71.0,58.0,30.13,East,87,12.0,26.0,63,0.00,,,0.00,,2013-03-05 00:32:00,
2013-03-04 14:41:00,71.0,58.0,30.13,East,87,12.0,26.0,63,0.00,,,0.00,,2013-03-05 00:41:00,
2013-03-04 14:52:00,71.0,59.0,30.12,NE,35,10.0,25.0,67,0.00,,,0.00,,2013-03-05 00:52:00,
2013-03-04 15:01:00,71.0,58.0,30.12,ENE,71,11.0,30.0,64,0.00,,,0.00,,2013-03-05 01:01:00,
2013-03-04 15:11:00,71.0,58.0,30.12,ENE,71,11.0,30.0,64,0.00,,,0.00,,2013-03-05 01:11:00,
2013-03-04 15:21:00,72.0,59.0,30.11,ENE,66,8.0,21.0,64,0.00,,,0.00,,2013-03-05 01:21:00,
2013-03-04 15:32:00,72.0,59.0,30.12,East,99,13.0,19.0,63,0.00,,,0.00,,2013-03-05 01:32:00,
2013-03-04 15:41:00,72.0,59.0,30.12,East,99,13.0,19.0,63,0.00,,,0.00,,2013-03-05 01:41:00,
2013-03-04 15:52:00,72.0,59.0,30.11,ENE,71,11.0,16.0,63,0.00,,,0.00,,2013-03-05 01:52:00,
2013-03-04 16:01:00,72.0,59.0,30.11,East,79,6.0,17.0,63,0.00,,,0.00,,2013-03-05 02:01:00,
2013-03-04 16:11:00,72.0,59.0,30.11,East,79,6.0,17.0,63,0.00,,,0.00,,2013-03-05 02:11:00,
2013-03-04 16:21:00,72.0,59.0,30.11,ENE,78,7.0,18.0,64,0.00,,,0.00,,2013-03-05 02:21:00,
2013-03-04 16:31:00,70.0,58.0,30.12,ENE,65,12.0,23.0,65,0.00,,,0.00,,2013-03-05 02:31:00,
2013-03-04 16:41:00,70.0,58.0,30.12,ENE,65,12.0,23.0,65,0.00,,,0.00,,2013-03-05 02:41:00,
2013-03-04 16:52:00,70.0,58.0,30.13,ENE,63,9.0,16.0,65,0.00,,,0.00,,2013-03-05 02:52:00,
2013-03-04 17:01:00,70.0,58.0,30.12,NE,48,10.0,19.0,66,0.00,,,0.00,,2013-03-05 03:01:00,
2013-03-04 17:11:00,70.0,58.0,30.12,NE,48,10.0,19.0,66,0.00,,,0.00,,2013-03-05 03:11:00,
2013-03-04 17:21:00,71.0,59.0,30.12,ENE,75,5.0,13.0,65,0.00,,,0.00,,2013-03-05 03:21:00,
2013-03-04 17:31:00,70.0,58.0,30.13,East,79,7.0,24.0,66,0.00,,,0.00,,2013-03-05 03:31:00,
2013-03-04 17:41:00,70.0,58.0,30.13,East,79,7.0,24.0,66,0.00,,,0.00,,2013-03-05 03:41:00,
2013-03-04 17:52:00,70.0,58.0,30.12,East,96,3.0,11.0,66,0.00,,,0.00,,2013-03-05 03:52:00,
2013-03-04 18:01:00,70.0,59.0,30.12,NE,56,6.0,13.0,67,0.00,,,0.00,,2013-03-05 04:01:00,
2013-03-04 18:11:00,70.0,59.0,30.12,NE,56,6.0,13.0,67,0.00,,,0.00,,2013-03-05 04:11:00,
2013-03-04 18:21:00,69.0,58.0,30.12,ENE,78,4.0,12.0,68,0.00,,,0.00,,2013-03-05 04:21:00,
2013-03-04 18:31:00,68.0,57.0,30.12,NE,55,9.0,19.0,69,0.00,,,0.00,,2013-03-05 04:31:00,
2013-03-04 18:41:00,68.0,57.0,30.12,NE,55,9.0,19.0,69,0.00,,,0.00,,2013-03-05 04:41:00,
2013-03-04 18:52:00,68.0,58.0,30.12,East,84,9.0,15.0,70,0.00,,,0.00,,2013-03-05 04:52:00,
2013-03-04 19:01:00,67.0,57.0,30.12,East,82,9.0,13.0,71,0.00,,,0.00,,2013-03-05 05:01:00,
2013-03-04 19:11:00,67.0,57.0,30.12,East,82,9.0,13.0,71,0.00,,,0.00,,2013-03-05 05:11:00,
2013-03-04 19:22:00,67.0,57.0,30.13,East,88,9.0,16.0,71,0.00,,,0.00,,2013-03-05 05:22:00,
2013-03-04 19:31:00,67.0,57.0,30.13,ENE,60,7.0,19.0,71,0.00,,,0.00,,2013-03-05 05:31:00,
2013-03-04 19:41:00,67.0,57.0,30.13,ENE,60,7.0,19.0,71,0.00,,,0.00,,2013-03-05 05:41:00,
2013-03-04 19:52:00,67.0,57.0,30.13,East,81,7.0,24.0,71,0.00,,,0.00,,2013-03-05 05:52:00,
2013-03-04 20:01:00,67.0,57.0,30.13,ENE,67,7.0,13.0,71,0.00,,,0.00,,2013-03-05 06:01:00,
2013-03-04 20:11:00,67.0,57.0,30.13,ENE,67,7.0,13.0,71,0.00,,,0.00,,2013-03-05 06:11:00,
2013-03-04 20:21:00,67.0,56.0,30.13,ENE,74,6.0,15.0,69,0.00,,,0.00,,2013-03-05 06:21:00,
2013-03-04 20:31:00,67.0,57.0,30.13,East,84,5.0,15.0,70,0.00,,,0.00,,2013-03-05 06:31:00,
2013-03-04 20:41:00,67.0,57.0,30.13,East,84,5.0,15.0,70,0.00,,,0.00,,2013-03-05 06:41:00,
2013-03-04 20:52:00,67.0,57.0,30.13,East,95,4.0,17.0,71,0.00,,,0.00,,2013-03-05 06:52:00,
2013-03-04 21:01:00,67.0,57.0,30.13,ENE,73,8.0,17.0,70,0.00,,,0.00,,2013-03-05 07:01:00,
2013-03-04 21:11:00,67.0,57.0,30.13,ENE,73,8.0,17.0,70,0.00,,,0.00,,2013-03-05 07:11:00,
2013-03-04 21:21:00,67.0,56.0,30.13,East,90,7.0,16.0,68,0.00,,,0.00,,2013-03-05 07:21:00,
2013-03-04 21:31:00,67.0,56.0,30.14,ESE,121,5.0,21.0,68,0.00,,,0.00,,2013-03-05 07:31:00,
2013-03-04 21:41:00,67.0,56.0,30.14,ESE,121,5.0,21.0,68,0.00,,,0.00,,2013-03-05 07:41:00,
2013-03-04 21:52:00,67.0,56.0,30.14,SSE,152,5.0,13.0,68,0.00,,,0.00,,2013-03-05 07:52:00,
2013-03-04 22:01:00,67.0,56.0,30.14,NE,53,5.0,21.0,68,0.00,,,0.00,,2013-03-05 08:01:00,
2013-03-04 22:11:00,67.0,56.0,30.14,NE,53,5.0,21.0,68,0.00,,,0.00,,2013-03-05 08:11:00,
2013-03-04 22:21:00,67.0,56.0,30.13,East,87,15.0,23.0,68,0.00,,,0.00,,2013-03-05 08:21:00,
2013-03-04 22:31:00,67.0,56.0,30.13,East,87,15.0,23.0,68,0.00,,,0.00,,2013-03-05 08:31:00,
2013-03-04 22:41:00,67.0,56.0,30.13,East,87,15.0,23.0,68,0.00,,,0.00,,2013-03-05 08:41:00,
2013-03-04 22:51:00,67.0,56.0,30.13,East,87,15.0,23.0,68,0.00,,,0.00,,2013-03-05 08:51:00,